Canby, OR

4:55 AM PDT on March 28, 2015 (GMT -0700)
Dietz Airpark | | Change Station
CLOSE
Current Station
Personal Weather Station
Location: Canby, OR
Elevation: 184 ft
Nearby Weather Stations

Elev 184 ft 45.26 °N, 122.65 °W | Updated 12 minutes ago

Mostly Cloudy
Mostly Cloudy
48.0 °F
Feels Like 46 °F
N
4.7
Wind Variable Wind from West

Today
High -- | Low -- °F
--% Chance of Precip.
Yesterday
High -- | Low -- °F
Precip. -- in
6:58 AM 7:33 PM
First Quarter, 61% visible
Pressure 30.28 in
Visibility 10.0 miles
Clouds Scattered Clouds 2200 ft
Mostly Cloudy 4800 ft
Mostly Cloudy 6000 ft
Windchill 46 °F
Dew Point 48 °F
Humidity 98%
Rainfall 0.04 in
Snow Depth Not available.
UV 0 out of 12
Pollen 4.80 out of 12
Air Quality Not available.
Flu Activity Not available.
METAR KUAO 281053Z AUTO 19008KT 10SM SCT022 BKN048 BKN060 09/08 A3028 RMK AO2 SLP253 T00940078

More Conditions Fewer Conditions

Pressure 30.28 in
Visibility 10.0 miles
Clouds Scattered Clouds 2200 ft
Mostly Cloudy 4800 ft
Mostly Cloudy 6000 ft
Windchill 46 °F
Dew Point 48 °F
Humidity 98%
Rainfall 0.04 in
Snow Depth Not available.
UV 0 out of 12
Pollen 4.80 out of 12
Air Quality Not available.
Flu Activity Not available.
METAR KUAO 281053Z AUTO 19008KT 10SM SCT022 BKN048 BKN060 09/08 A3028 RMK AO2 SLP253 T00940078

More Conditions Fewer Conditions

10-Day Weather Forecast

Almanac

Astronomy

Mar. 28, 2015 Rise Set
Actual Time
Civil Twilight
Nautical Twilight
Astronomical Twilight
Moon
Length of Visible Light
Length of Day
Tomorrow will be .
, % of the Moon is Illuminated

Today's Extremes

State Highs State Lows

Community

WunderPhotos

Upload Photos

1,808,960 photos uploaded!

WunderBlogs® & News

Nearby

Air Quality

  Air Quality AQ Index Pollutant
Not available.

Snow Depth

Station Depth Elevation

Earthquake Activity

City Distance Mag. Time & Date
Minimum magnitude displayed is 2.5.

Coastal Water Temperatures

Place Temperature

Stations

Nearby Weather Stations

Station Location Temp. Windchill Dew Point Humidity Wind Precip. Elev Updated Type